createdAt,value
2019-04-30T00:00:00.526Z,71.34
2019-04-30T00:02:45.618Z,71.24
2019-04-30T00:05:20.626Z,71.26
2019-04-30T00:07:58.438Z,71.59
2019-04-30T00:10:36.905Z,71.66
2019-04-30T00:13:03.585Z,71.42
2019-04-30T00:15:35.686Z,71.80
2019-04-30T00:18:06.688Z,71.50
2019-04-30T00:20:45.304Z,71.52
2019-04-30T00:23:18.114Z,71.46
2019-04-30T00:25:49.049Z,71.67
2019-04-30T00:28:20.914Z,71.75
2019-04-30T00:30:51.751Z,72.04
2019-04-30T00:33:25.164Z,72.50
2019-04-30T00:35:58.001Z,72.04
2019-04-30T00:38:36.025Z,72.23
2019-04-30T00:41:06.969Z,72.07
2019-04-30T00:43:37.665Z,72.39
2019-04-30T00:46:09.682Z,72.24
2019-04-30T00:48:40.294Z,72.18
2019-04-30T00:51:18.134Z,72.10
2019-04-30T00:53:51.377Z,71.91
2019-04-30T00:56:24.620Z,72.40
2019-04-30T00:58:57.792Z,73.40
2019-04-30T01:01:48.215Z,73.65
2019-04-30T01:04:34.969Z,73.15
2019-04-30T01:07:08.726Z,73.39
2019-04-30T01:09:43.588Z,73.39
2019-04-30T01:12:35.924Z,73.10
2019-04-30T01:15:06.734Z,73.29
2019-04-30T01:17:34.713Z,73.57
2019-04-30T01:20:05.792Z,74.05
2019-04-30T01:22:38.849Z,73.92
2019-04-30T01:25:13.410Z,73.83
2019-04-30T01:27:45.851Z,73.74
2019-04-30T01:30:18.719Z,74.01
2019-04-30T01:32:56.475Z,73.99
2019-04-30T01:35:23.879Z,73.60
2019-04-30T01:37:54.464Z,73.82
2019-04-30T01:40:25.125Z,73.71
2019-04-30T01:42:56.103Z,73.67
2019-04-30T01:45:30.110Z,73.21
2019-04-30T01:48:08.447Z,73.48
2019-04-30T01:50:33.792Z,73.77
2019-04-30T01:53:04.753Z,73.47
2019-04-30T01:55:47.011Z,72.95
2019-04-30T01:58:34.334Z,73.58
2019-04-30T02:01:06.702Z,73.93
2019-04-30T02:03:37.347Z,73.25
2019-04-30T02:06:11.423Z,73.75
2019-04-30T02:08:43.498Z,74.37
2019-04-30T02:11:14.178Z,74.23
2019-04-30T02:13:46.896Z,74.19
2019-04-30T02:16:21.147Z,73.96
2019-04-30T02:18:53.954Z,74.01
2019-04-30T02:21:25.742Z,74.74
2019-04-30T02:23:56.704Z,74.07
2019-04-30T02:26:35.693Z,73.98
2019-04-30T02:29:06.511Z,74.34
2019-04-30T02:31:40.570Z,74.35
2019-04-30T02:34:11.506Z,73.97
2019-04-30T02:36:43.789Z,73.97
2019-04-30T02:39:14.415Z,73.77
2019-04-30T02:41:45.379Z,74.37
2019-04-30T02:44:16.555Z,73.91
2019-04-30T02:46:50.324Z,74.05
2019-04-30T02:49:21.663Z,73.89
2019-04-30T02:51:52.540Z,74.44
2019-04-30T02:54:29.632Z,73.69
2019-04-30T02:57:02.092Z,74.67
2019-04-30T02:59:32.701Z,74.41
2019-04-30T03:02:03.439Z,74.54
2019-04-30T03:04:34.055Z,74.26
2019-04-30T03:07:04.930Z,75.08
2019-04-30T03:09:39.384Z,74.46
2019-04-30T03:12:10.137Z,75.34
2019-04-30T03:14:40.725Z,75.29
2019-04-30T03:17:23.471Z,75.24
2019-04-30T03:20:03.680Z,75.21
2019-04-30T03:22:34.445Z,75.72
2019-04-30T03:25:05.408Z,75.38
2019-04-30T03:27:36.057Z,75.88
2019-04-30T03:30:11.650Z,76.06
2019-04-30T03:32:42.897Z,75.51
2019-04-30T03:35:13.156Z,75.99
2019-04-30T03:37:54.016Z,76.77
2019-04-30T03:40:24.679Z,76.55
2019-04-30T03:42:55.396Z,76.77
2019-04-30T03:45:30.276Z,76.33
2019-04-30T03:48:01.991Z,76.47
2019-04-30T03:50:48.742Z,76.46
2019-04-30T03:53:05.435Z,75.86
2019-04-30T03:55:40.050Z,76.89
2019-04-30T03:58:11.478Z,76.71
2019-04-30T04:00:47.124Z,76.55
2019-04-30T04:03:22.901Z,76.34
2019-04-30T04:06:21.264Z,76.44
2019-04-30T04:08:55.631Z,76.54
2019-04-30T04:11:29.783Z,76.81
2019-04-30T04:14:00.205Z,76.46
2019-04-30T04:16:32.748Z,76.90
2019-04-30T04:19:09.666Z,77.05
2019-04-30T04:21:40.591Z,76.12
2019-04-30T04:24:11.382Z,76.19
2019-04-30T04:26:43.952Z,76.14
2019-04-30T04:29:14.487Z,76.07
2019-04-30T04:31:56.064Z,76.81
2019-04-30T04:34:26.663Z,76.39
2019-04-30T04:36:59.863Z,76.53
2019-04-30T04:39:29.816Z,76.06
2019-04-30T04:42:00.529Z,76.06
2019-04-30T04:44:31.168Z,76.04
2019-04-30T04:47:01.797Z,75.92
2019-04-30T04:49:32.466Z,75.57
2019-04-30T04:52:03.113Z,75.97
2019-04-30T04:54:33.816Z,76.27
2019-04-30T04:57:14.831Z,75.49
2019-04-30T04:59:42.528Z,75.46
2019-04-30T05:02:32.159Z,75.79
2019-04-30T05:05:02.341Z,75.94
2019-04-30T05:07:32.985Z,75.83
2019-04-30T05:10:03.681Z,75.25
2019-04-30T05:12:34.293Z,75.10
2019-04-30T05:15:05.223Z,74.91
2019-04-30T05:17:50.012Z,75.34
2019-04-30T05:20:20.697Z,75.67
2019-04-30T05:22:52.335Z,75.46
2019-04-30T05:25:29.577Z,75.76
2019-04-30T05:28:00.461Z,75.68
2019-04-30T05:30:35.953Z,75.53
2019-04-30T05:33:23.030Z,75.42
2019-04-30T05:35:53.859Z,75.45
2019-04-30T05:38:24.466Z,75.79
2019-04-30T05:40:55.131Z,75.46
2019-04-30T05:43:25.835Z,75.60
2019-04-30T05:45:58.541Z,76.00
2019-04-30T05:48:29.738Z,75.93
2019-04-30T05:51:04.625Z,76.18
2019-04-30T05:53:35.241Z,75.37
2019-04-30T05:56:11.053Z,75.63
2019-04-30T05:58:41.849Z,75.11
2019-04-30T06:01:12.574Z,75.02
2019-04-30T06:03:43.169Z,74.70
2019-04-30T06:06:13.934Z,73.81
2019-04-30T06:09:06.238Z,74.45
2019-04-30T06:11:53.915Z,74.22
2019-04-30T06:14:48.872Z,74.77
2019-04-30T06:17:19.840Z,73.90
2019-04-30T06:19:51.416Z,72.82
2019-04-30T06:22:22.556Z,73.71
2019-04-30T06:24:53.165Z,73.09
2019-04-30T06:27:23.932Z,73.09
2019-04-30T06:29:54.531Z,72.05
2019-04-30T06:32:25.354Z,71.51
2019-04-30T06:34:56.576Z,71.74
2019-04-30T06:37:28.784Z,71.45
2019-04-30T06:39:59.813Z,70.62
2019-04-30T06:42:31.520Z,69.92
2019-04-30T06:45:02.482Z,69.58
2019-04-30T06:47:34.474Z,69.26
2019-04-30T06:50:05.770Z,67.70
2019-04-30T06:52:36.485Z,67.85
2019-04-30T06:55:07.180Z,67.74
2019-04-30T06:57:38.401Z,67.57
2019-04-30T07:00:12.199Z,65.83
2019-04-30T07:02:43.890Z,66.51
2019-04-30T07:05:18.689Z,63.59
2019-04-30T07:08:09.003Z,62.67
2019-04-30T07:10:36.175Z,62.71
2019-04-30T07:13:14.711Z,62.89
2019-04-30T07:15:45.334Z,63.12
2019-04-30T07:18:16.090Z,62.94
2019-04-30T07:20:48.502Z,63.18
2019-04-30T07:23:19.385Z,63.29
2019-04-30T07:25:51.714Z,62.47
2019-04-30T07:28:43.776Z,63.06
2019-04-30T07:31:11.721Z,61.97
2019-04-30T07:33:34.871Z,61.63
2019-04-30T07:36:05.546Z,61.95
2019-04-30T07:38:43.178Z,62.91
2019-04-30T07:41:09.538Z,62.21
2019-04-30T07:43:40.307Z,62.93
2019-04-30T07:46:11.021Z,62.78
2019-04-30T07:48:41.803Z,61.67
2019-04-30T07:51:13.055Z,60.12
2019-04-30T07:53:43.950Z,60.37
2019-04-30T07:56:25.721Z,59.82
2019-04-30T07:58:46.879Z,60.97
2019-04-30T08:01:19.558Z,60.99
2019-04-30T08:03:52.166Z,61.61
2019-04-30T08:06:24.827Z,61.33
2019-04-30T08:08:58.327Z,60.30
2019-04-30T08:11:29.369Z,60.31
2019-04-30T08:14:00.344Z,58.98
2019-04-30T08:16:31.068Z,59.17
2019-04-30T08:19:01.684Z,59.11
2019-04-30T08:21:32.365Z,58.96
2019-04-30T08:24:05.066Z,57.86
2019-04-30T08:26:36.124Z,57.93
2019-04-30T08:29:06.838Z,58.24
2019-04-30T08:31:41.511Z,58.60
2019-04-30T08:34:12.214Z,57.28
2019-04-30T08:36:42.783Z,57.81
2019-04-30T08:39:13.378Z,58.38
2019-04-30T08:41:44.057Z,56.97
2019-04-30T08:44:14.720Z,57.82
2019-04-30T08:46:45.314Z,56.64
2019-04-30T08:49:16.063Z,56.68
2019-04-30T08:51:48.757Z,56.50
2019-04-30T08:54:19.874Z,56.86
2019-04-30T08:56:50.946Z,57.37
2019-04-30T08:59:21.650Z,57.77
2019-04-30T09:01:52.316Z,57.51
2019-04-30T09:04:25.621Z,57.74
2019-04-30T09:06:56.307Z,58.09
2019-04-30T09:09:26.906Z,56.54
2019-04-30T09:11:59.166Z,55.85
2019-04-30T09:14:30.161Z,57.13
2019-04-30T09:17:00.999Z,57.59
2019-04-30T09:19:31.671Z,58.40
2019-04-30T09:22:02.254Z,55.74
2019-04-30T09:24:32.936Z,55.76
2019-04-30T09:27:03.523Z,55.86
2019-04-30T09:29:34.216Z,55.78
2019-04-30T09:32:04.881Z,56.92
2019-04-30T09:34:35.476Z,56.51
2019-04-30T09:37:06.128Z,55.46
2019-04-30T09:39:36.713Z,54.78
2019-04-30T09:42:09.148Z,55.05
2019-04-30T09:44:39.921Z,54.42
2019-04-30T09:47:11.574Z,54.13
2019-04-30T09:49:42.254Z,54.62
2019-04-30T09:52:12.829Z,54.25
2019-04-30T09:54:43.537Z,53.58
2019-04-30T09:57:15.099Z,53.93
2019-04-30T09:59:45.694Z,53.59
2019-04-30T10:02:16.366Z,53.33
2019-04-30T10:04:47.750Z,53.42
2019-04-30T10:07:19.522Z,52.38
2019-04-30T10:09:50.950Z,53.39
2019-04-30T10:12:22.029Z,53.53
2019-04-30T10:14:52.740Z,54.03
2019-04-30T10:17:39.975Z,52.73
2019-04-30T10:20:12.724Z,53.38
2019-04-30T10:22:43.318Z,53.21
2019-04-30T10:25:14.212Z,51.93
2019-04-30T10:27:44.893Z,51.55
2019-04-30T10:30:16.238Z,52.02
2019-04-30T10:32:49.935Z,51.75
2019-04-30T10:35:23.922Z,51.10
2019-04-30T10:37:55.519Z,50.78
2019-04-30T10:40:28.706Z,51.09
2019-04-30T10:42:59.564Z,51.48
2019-04-30T10:45:30.531Z,51.71
2019-04-30T10:48:01.139Z,50.28
2019-04-30T10:50:33.830Z,51.83
2019-04-30T10:53:04.480Z,50.99
2019-04-30T10:55:35.164Z,50.49
2019-04-30T10:58:05.739Z,52.14
2019-04-30T11:00:38.973Z,52.65
2019-04-30T11:03:19.605Z,53.16
2019-04-30T11:05:43.186Z,52.27
2019-04-30T11:08:13.986Z,52.67
2019-04-30T11:10:48.866Z,52.96
2019-04-30T11:13:19.552Z,53.85
2019-04-30T11:15:50.313Z,53.58
2019-04-30T11:18:21.345Z,53.86
2019-04-30T11:20:52.347Z,54.37
2019-04-30T11:23:23.245Z,54.22
2019-04-30T11:25:54.981Z,54.52
2019-04-30T11:28:27.569Z,53.38
2019-04-30T11:31:26.416Z,53.83
2019-04-30T11:33:58.711Z,54.43
2019-04-30T11:36:38.890Z,52.52
2019-04-30T11:39:11.716Z,52.51
2019-04-30T11:41:42.409Z,53.45
2019-04-30T11:44:13.103Z,52.21
2019-04-30T11:47:29.906Z,51.70
2019-04-30T11:50:00.575Z,52.15
2019-04-30T11:52:31.252Z,52.68
2019-04-30T11:55:02.944Z,52.59
2019-04-30T11:57:33.715Z,51.86
2019-04-30T12:00:08.517Z,51.58
2019-04-30T12:02:40.795Z,51.37
2019-04-30T12:05:13.787Z,51.55
2019-04-30T12:07:46.192Z,50.54
2019-04-30T12:10:29.270Z,50.21
2019-04-30T12:12:59.671Z,50.74
2019-04-30T12:15:30.418Z,50.36
2019-04-30T12:18:01.114Z,49.59
2019-04-30T12:20:39.959Z,49.49
2019-04-30T12:23:11.933Z,48.98
2019-04-30T12:25:42.536Z,49.63
2019-04-30T12:28:13.308Z,50.66
2019-04-30T12:30:44.113Z,50.79
2019-04-30T12:33:14.786Z,49.17
2019-04-30T12:35:45.754Z,48.83
2019-04-30T12:38:16.445Z,48.91
2019-04-30T12:40:47.125Z,49.66
2019-04-30T12:43:18.782Z,48.93
2019-04-30T12:46:02.044Z,48.20
2019-04-30T12:48:44.559Z,47.95
2019-04-30T12:51:19.733Z,48.68
2019-04-30T12:53:57.584Z,48.92
2019-04-30T12:56:47.817Z,48.21
2019-04-30T12:59:22.660Z,47.35
2019-04-30T13:01:53.261Z,47.24
2019-04-30T13:04:23.921Z,47.68
2019-04-30T13:06:54.973Z,47.22
2019-04-30T13:09:26.613Z,47.47
2019-04-30T13:12:00.594Z,47.13
2019-04-30T13:14:32.239Z,47.17
2019-04-30T13:17:03.608Z,47.05
2019-04-30T13:19:35.388Z,47.01
2019-04-30T13:22:06.071Z,46.36
2019-04-30T13:24:36.925Z,46.66
2019-04-30T13:27:09.375Z,47.32
2019-04-30T13:29:58.234Z,46.88
2019-04-30T13:32:32.935Z,47.19
2019-04-30T13:35:03.886Z,46.44
2019-04-30T13:37:57.078Z,46.22
2019-04-30T13:40:33.356Z,46.51
2019-04-30T13:43:05.901Z,47.96
2019-04-30T13:45:36.586Z,46.93
2019-04-30T13:48:08.966Z,47.44
2019-04-30T13:50:41.784Z,47.81
2019-04-30T13:53:12.399Z,47.65
2019-04-30T13:55:48.854Z,48.28
2019-04-30T13:58:19.377Z,48.35
2019-04-30T14:00:50.024Z,48.77
2019-04-30T14:03:23.291Z,48.64
2019-04-30T14:05:54.103Z,47.25
2019-04-30T14:08:29.101Z,48.28
2019-04-30T14:10:59.905Z,48.46
2019-04-30T14:13:30.620Z,48.31
2019-04-30T14:16:03.446Z,48.40
2019-04-30T14:18:48.832Z,49.30
2019-04-30T14:21:32.243Z,49.32
2019-04-30T14:23:52.691Z,49.70
2019-04-30T14:26:40.912Z,48.87
2019-04-30T14:29:17.217Z,48.63
2019-04-30T14:31:52.070Z,48.85
2019-04-30T14:34:22.795Z,48.88
2019-04-30T14:36:53.418Z,49.56
2019-04-30T14:39:26.118Z,49.96
2019-04-30T14:42:00.075Z,49.92
2019-04-30T14:44:34.626Z,49.98
2019-04-30T14:47:11.574Z,50.00
2019-04-30T14:49:59.647Z,50.62
2019-04-30T14:52:24.794Z,49.92
2019-04-30T14:55:13.500Z,49.51
2019-04-30T14:57:45.913Z,49.54
2019-04-30T15:00:31.966Z,49.16
2019-04-30T15:03:16.709Z,49.41
2019-04-30T15:05:52.569Z,50.29
2019-04-30T15:08:25.451Z,50.80
2019-04-30T15:10:56.185Z,50.40
2019-04-30T15:13:29.518Z,50.51
2019-04-30T15:16:00.355Z,50.83
2019-04-30T15:18:32.080Z,50.92
2019-04-30T15:21:02.849Z,50.96
2019-04-30T15:23:56.375Z,51.23
2019-04-30T15:26:41.629Z,51.21
2019-04-30T15:29:16.325Z,51.73
2019-04-30T15:31:48.183Z,51.46
2019-04-30T15:34:19.388Z,51.48
2019-04-30T15:36:50.474Z,51.95
2019-04-30T15:39:26.163Z,51.71
2019-04-30T15:42:09.669Z,52.37
2019-04-30T15:44:45.347Z,52.10
2019-04-30T15:47:19.715Z,51.38
2019-04-30T15:49:50.657Z,51.82
2019-04-30T15:52:35.901Z,51.55
2019-04-30T15:55:06.765Z,52.14
2019-04-30T15:57:45.249Z,51.65
2019-04-30T16:00:18.727Z,51.95
2019-04-30T16:03:04.631Z,51.62
2019-04-30T16:05:40.409Z,51.91
2019-04-30T16:08:15.679Z,52.05
2019-04-30T16:10:51.090Z,51.98
2019-04-30T16:13:46.395Z,51.44
2019-04-30T16:16:19.212Z,51.38
2019-04-30T16:18:50.503Z,52.47
2019-04-30T16:21:22.424Z,52.78
2019-04-30T16:24:12.956Z,51.75
2019-04-30T16:26:49.494Z,52.28
2019-04-30T16:29:16.612Z,51.88
2019-04-30T16:31:49.415Z,51.99
2019-04-30T16:34:24.887Z,52.70
2019-04-30T16:36:56.700Z,51.66
2019-04-30T16:39:29.795Z,51.22
2019-04-30T16:42:00.821Z,51.17
2019-04-30T16:44:38.541Z,51.05
2019-04-30T16:47:14.470Z,50.78
2019-04-30T16:49:45.211Z,51.53
2019-04-30T16:52:18.910Z,51.56
2019-04-30T16:54:52.819Z,51.31
2019-04-30T16:57:30.301Z,51.26
2019-04-30T17:00:00.780Z,51.83
2019-04-30T17:02:32.352Z,51.05
2019-04-30T17:05:08.539Z,50.71
2019-04-30T17:07:43.637Z,51.41
2019-04-30T17:10:16.148Z,51.60
2019-04-30T17:13:01.907Z,51.62
2019-04-30T17:15:43.302Z,51.71
2019-04-30T17:18:13.966Z,52.07
2019-04-30T17:20:48.584Z,52.63
2019-04-30T17:23:19.486Z,52.69
2019-04-30T17:25:51.358Z,52.99
2019-04-30T17:28:22.088Z,52.91
2019-04-30T17:30:59.000Z,53.44
2019-04-30T17:33:29.795Z,53.55
2019-04-30T17:36:00.487Z,52.06
2019-04-30T17:38:34.794Z,52.04
2019-04-30T17:41:07.749Z,51.82
2019-04-30T17:43:41.633Z,52.29
2019-04-30T17:46:15.468Z,52.67
2019-04-30T17:48:46.341Z,52.96
2019-04-30T17:51:18.121Z,53.47
2019-04-30T17:54:06.663Z,53.87
2019-04-30T17:56:38.787Z,54.26
2019-04-30T17:59:09.999Z,54.56
2019-04-30T18:01:42.461Z,54.06
2019-04-30T18:04:14.175Z,53.91
2019-04-30T18:06:45.735Z,53.97
2019-04-30T18:09:19.078Z,53.85
2019-04-30T18:11:50.091Z,54.08
2019-04-30T18:14:20.947Z,54.24
2019-04-30T18:16:51.621Z,54.77
2019-04-30T18:19:46.003Z,54.96
2019-04-30T18:22:30.495Z,55.15
2019-04-30T18:25:05.730Z,54.94
2019-04-30T18:27:46.198Z,54.76
2019-04-30T18:30:19.034Z,54.33
2019-04-30T18:33:02.244Z,54.54
2019-04-30T18:35:32.979Z,54.57
2019-04-30T18:38:03.658Z,54.68
2019-04-30T18:40:35.445Z,55.26
2019-04-30T18:43:18.911Z,54.76
2019-04-30T18:45:53.235Z,55.32
2019-04-30T18:48:31.106Z,55.65
2019-04-30T18:51:15.969Z,56.46
2019-04-30T18:53:35.914Z,56.83
2019-04-30T18:56:12.162Z,56.07
2019-04-30T18:58:42.911Z,55.85
2019-04-30T19:01:14.150Z,55.97
2019-04-30T19:03:45.900Z,56.83
2019-04-30T19:06:26.267Z,56.40
2019-04-30T19:09:16.858Z,57.06
2019-04-30T19:12:11.246Z,56.86
2019-04-30T19:15:02.183Z,57.44
2019-04-30T19:17:52.526Z,58.02
2019-04-30T19:20:33.812Z,56.84
2019-04-30T19:23:06.154Z,57.52
2019-04-30T19:25:38.626Z,57.47
2019-04-30T19:28:14.331Z,57.64
2019-04-30T19:30:57.649Z,57.73
2019-04-30T19:33:29.230Z,57.87
2019-04-30T19:36:00.572Z,58.68
2019-04-30T19:38:31.460Z,59.11
2019-04-30T19:41:02.250Z,58.90
2019-04-30T19:43:33.063Z,58.49
2019-04-30T19:46:09.046Z,59.03
2019-04-30T19:48:41.955Z,59.04
2019-04-30T19:51:14.417Z,58.69
2019-04-30T19:53:51.831Z,58.72
2019-04-30T19:56:23.209Z,58.64
2019-04-30T19:59:02.073Z,59.19
2019-04-30T20:01:28.691Z,59.74
2019-04-30T20:04:00.830Z,60.29
2019-04-30T20:06:31.931Z,60.31
2019-04-30T20:09:03.331Z,59.84
2019-04-30T20:11:42.541Z,59.72
2019-04-30T20:14:18.658Z,59.72
2019-04-30T20:16:51.755Z,60.17
2019-04-30T20:19:23.064Z,60.06
2019-04-30T20:22:05.675Z,60.42
2019-04-30T20:24:42.194Z,60.84
2019-04-30T20:27:21.998Z,60.69
2019-04-30T20:29:55.978Z,60.04
2019-04-30T20:32:36.629Z,60.89
2019-04-30T20:35:07.146Z,60.63
2019-04-30T20:38:00.034Z,60.50
2019-04-30T20:40:43.346Z,60.75
2019-04-30T20:43:08.459Z,60.55
2019-04-30T20:45:39.042Z,60.79
2019-04-30T20:48:10.795Z,61.22
2019-04-30T20:50:50.713Z,61.53
2019-04-30T20:53:21.635Z,61.24
2019-04-30T20:55:54.726Z,62.15
2019-04-30T20:58:25.360Z,61.68
2019-04-30T21:01:04.095Z,61.63
2019-04-30T21:03:29.592Z,61.87
2019-04-30T21:06:11.227Z,62.47
2019-04-30T21:08:47.691Z,63.09
2019-04-30T21:11:30.399Z,62.80
2019-04-30T21:14:08.956Z,62.71
2019-04-30T21:16:46.505Z,63.15
2019-04-30T21:19:17.651Z,63.50
2019-04-30T21:22:00.734Z,63.04
2019-04-30T21:24:32.851Z,63.46
2019-04-30T21:27:04.028Z,63.91
2019-04-30T21:29:35.146Z,63.62
2019-04-30T21:32:07.912Z,63.37
2019-04-30T21:34:44.297Z,64.43
2019-04-30T21:37:37.338Z,64.92
2019-04-30T21:40:09.714Z,64.32
2019-04-30T21:42:52.563Z,65.50
2019-04-30T21:45:25.114Z,64.94
2019-04-30T21:48:19.154Z,65.14
2019-04-30T21:51:11.372Z,65.89
2019-04-30T21:53:46.789Z,65.38
2019-04-30T21:56:19.376Z,66.06
2019-04-30T21:59:01.603Z,65.91
2019-04-30T22:01:32.642Z,66.41
2019-04-30T22:04:14.700Z,66.20
2019-04-30T22:07:00.699Z,66.76
2019-04-30T22:09:43.489Z,66.59
2019-04-30T22:12:23.656Z,66.68
2019-04-30T22:14:55.551Z,67.22
2019-04-30T22:17:26.300Z,66.91
2019-04-30T22:19:59.699Z,67.53
2019-04-30T22:22:30.449Z,68.30
2019-04-30T22:25:01.606Z,67.88
2019-04-30T22:27:33.591Z,67.49
2019-04-30T22:30:04.929Z,67.85
2019-04-30T22:32:51.931Z,68.04
2019-04-30T22:35:44.833Z,68.57
2019-04-30T22:38:29.083Z,68.41
2019-04-30T22:41:06.368Z,68.82
2019-04-30T22:43:38.462Z,69.04
2019-04-30T22:46:14.320Z,69.18
2019-04-30T22:48:47.059Z,69.09
2019-04-30T22:51:18.834Z,69.73
2019-04-30T22:53:51.651Z,69.63
2019-04-30T22:56:25.568Z,69.58
2019-04-30T22:58:56.629Z,69.51
2019-04-30T23:01:34.982Z,69.24
2019-04-30T23:04:14.376Z,69.80
2019-04-30T23:06:45.096Z,70.01
2019-04-30T23:09:16.409Z,70.40
2019-04-30T23:11:47.175Z,70.25
2019-04-30T23:14:17.837Z,70.72
2019-04-30T23:16:56.384Z,70.72
2019-04-30T23:19:31.049Z,70.71
2019-04-30T23:22:07.023Z,70.22
2019-04-30T23:24:37.721Z,71.24
2019-04-30T23:27:13.115Z,71.80
2019-04-30T23:29:43.711Z,71.89
2019-04-30T23:32:17.887Z,71.61
2019-04-30T23:34:51.621Z,71.49
2019-04-30T23:37:24.343Z,71.65
2019-04-30T23:40:23.745Z,72.07
2019-04-30T23:42:55.407Z,71.83
2019-04-30T23:45:27.258Z,71.81
2019-04-30T23:47:57.984Z,71.65
2019-04-30T23:50:28.733Z,71.95
2019-04-30T23:53:10.559Z,72.28
2019-04-30T23:55:41.368Z,72.46
2019-04-30T23:58:12.094Z,72.12
